Terminal Aerodrome Forecast
Issued by NWS

Home | Current Version | Previous Version | Text Only | Print | Product List | Glossary On
Versions: 1 2 3 4 5 6 7 8 9 10 11 12 13 14 15 16 17 18 19 20 21 22 23 24 25 26 27 28 29 30 31 32 33 34 35
939
FTUS43 KPAH 181904 AAA
TAFOWB
TAF AMD
KOWB 181904Z 1819/1918 36005KT P6SM VCTS BKN050CB
      TEMPO 1819/1823 VRB10G20KT 2SM +TSRA BR OVC015CB
     FM182300 12004KT P6SM BKN080
      TEMPO 1823/1903 5SM SHRA BR BKN035
     FM190900 00000KT 3SM BR BKN120
     FM191400 24004KT P6SM SCT090=

USA.gov is the U.S. government's official web portal to all federal, state and local government web resources and services.